createdAt,value
2023-02-19T00:00:14.345Z,100267.78
2023-02-19T00:02:40.645Z,100268.44
2023-02-19T00:05:07.038Z,100268.06
2023-02-19T00:07:33.379Z,100262.03
2023-02-19T00:09:59.694Z,100259.53
2023-02-19T00:12:26.021Z,100265.31
2023-02-19T00:14:52.319Z,100260.25
2023-02-19T00:17:18.654Z,100254.47
2023-02-19T00:19:44.983Z,100246.47
2023-02-19T00:22:11.314Z,100242.34
2023-02-19T00:24:37.625Z,100250.06
2023-02-19T00:27:03.970Z,100250.66
2023-02-19T00:29:30.309Z,100245.97
2023-02-19T00:31:56.762Z,100251.84
2023-02-19T00:34:23.171Z,100247.88
2023-02-19T00:36:49.490Z,100243.53
2023-02-19T00:39:16.069Z,100251.19
2023-02-19T00:41:42.568Z,100243.94
2023-02-19T00:44:08.876Z,100245.28
2023-02-19T00:46:35.214Z,100238.22
2023-02-19T00:49:01.563Z,100244.34
2023-02-19T00:51:27.884Z,100232.56
2023-02-19T00:53:54.212Z,100240.59
2023-02-19T00:56:20.533Z,100237.19
2023-02-19T00:58:46.868Z,100224.88
2023-02-19T01:01:13.319Z,100219.59
2023-02-19T01:03:39.775Z,100222.75
2023-02-19T01:06:06.177Z,100224.53
2023-02-19T01:08:32.765Z,100224.88
2023-02-19T01:10:59.135Z,100215.69
2023-02-19T01:13:25.441Z,100216.31
2023-02-19T01:15:51.837Z,100213.87
2023-02-19T01:18:18.188Z,100199.44
2023-02-19T01:20:44.495Z,100203.53
2023-02-19T01:23:10.807Z,100197.69
2023-02-19T01:25:37.231Z,100190.97
2023-02-19T01:28:03.545Z,100190.88
2023-02-19T01:30:29.906Z,100188.50
2023-02-19T01:32:56.230Z,100175.94
2023-02-19T01:35:23.080Z,100181.91
2023-02-19T01:37:49.419Z,100179.28
2023-02-19T01:40:15.743Z,100168.78
2023-02-19T01:42:42.063Z,100165.81
2023-02-19T01:45:08.377Z,100163.31
2023-02-19T01:47:34.716Z,100150.72
2023-02-19T01:50:01.034Z,100149.09
2023-02-19T01:52:27.374Z,100142.34
2023-02-19T01:54:53.686Z,100142.63
2023-02-19T01:57:20.007Z,100152.13
2023-02-19T01:59:46.319Z,100139.47
2023-02-19T02:02:12.641Z,100139.97
2023-02-19T02:04:38.951Z,100135.59
2023-02-19T02:07:25.246Z,100136.00
2023-02-19T02:10:10.183Z,100133.88
2023-02-19T02:12:36.492Z,100135.19
2023-02-19T02:15:02.808Z,100122.94
2023-02-19T02:17:29.198Z,100127.31
2023-02-19T02:19:55.526Z,100122.72
2023-02-19T02:22:21.865Z,100125.66
2023-02-19T02:24:48.222Z,100116.75
2023-02-19T02:27:14.519Z,100110.00
2023-02-19T02:29:40.841Z,100112.44
2023-02-19T02:32:07.377Z,100109.84
2023-02-19T02:34:33.728Z,100107.88
2023-02-19T02:37:00.053Z,100112.81
2023-02-19T02:39:26.413Z,100105.78
2023-02-19T02:42:12.728Z,100100.06
2023-02-19T02:44:39.072Z,100093.19
2023-02-19T02:47:05.406Z,100084.53
2023-02-19T02:49:31.705Z,100088.63
2023-02-19T02:51:58.025Z,100082.88
2023-02-19T02:54:43.352Z,100079.62
2023-02-19T02:57:09.766Z,100086.50
2023-02-19T02:59:36.094Z,100081.06
2023-02-19T03:02:11.603Z,100070.31
2023-02-19T03:04:38.004Z,100072.94
2023-02-19T03:07:04.325Z,100065.25
2023-02-19T03:09:30.680Z,100059.09
2023-02-19T03:12:15.929Z,100058.19
2023-02-19T03:15:00.844Z,100064.28
2023-02-19T03:17:45.990Z,100073.41
2023-02-19T03:20:12.318Z,100055.44
2023-02-19T03:22:38.634Z,100057.56
2023-02-19T03:25:23.910Z,100052.62
2023-02-19T03:27:50.210Z,100047.53
2023-02-19T03:30:16.618Z,100039.19
2023-02-19T03:32:42.988Z,100040.06
2023-02-19T03:35:09.302Z,100040.53
2023-02-19T03:37:35.622Z,100042.78
2023-02-19T03:40:01.979Z,100045.22
2023-02-19T03:42:28.302Z,100031.84
2023-02-19T03:44:54.646Z,100026.22
2023-02-19T03:47:20.977Z,100028.06
2023-02-19T03:49:49.093Z,100032.91
2023-02-19T03:52:15.534Z,100030.25
2023-02-19T03:54:41.864Z,100030.25
2023-02-19T03:57:08.201Z,100022.44
2023-02-19T03:59:34.539Z,100012.75
2023-02-19T04:02:00.870Z,100009.63
2023-02-19T04:04:27.291Z,100008.84
2023-02-19T04:06:53.659Z,100000.72
2023-02-19T04:09:19.966Z,100001.09
2023-02-19T04:11:46.278Z,99999.28
2023-02-19T04:14:12.601Z,99996.41
2023-02-19T04:16:38.995Z,99994.37
2023-02-19T04:19:05.361Z,99999.91
2023-02-19T04:21:31.669Z,99995.53
2023-02-19T04:23:58.016Z,99994.22
2023-02-19T04:26:24.318Z,99993.22
2023-02-19T04:28:50.660Z,99996.34
2023-02-19T04:31:17.068Z,99995.50
2023-02-19T04:33:43.477Z,99985.41
2023-02-19T04:36:09.810Z,99991.19
2023-02-19T04:38:36.141Z,99984.00
2023-02-19T04:41:02.457Z,99996.09
2023-02-19T04:43:28.839Z,99985.81
2023-02-19T04:45:55.179Z,99969.75
2023-02-19T04:48:21.564Z,99979.91
2023-02-19T04:50:47.854Z,99963.22
2023-02-19T04:53:14.194Z,99958.97
2023-02-19T04:55:40.522Z,99960.19
2023-02-19T04:58:06.888Z,99950.13
2023-02-19T05:00:34.200Z,99961.41
2023-02-19T05:03:01.098Z,99952.69
2023-02-19T05:05:27.571Z,99966.22
2023-02-19T05:07:54.261Z,99971.22
2023-02-19T05:10:20.582Z,99981.88
2023-02-19T05:12:46.905Z,99980.31
2023-02-19T05:15:13.206Z,99968.75
2023-02-19T05:17:39.528Z,99975.31
2023-02-19T05:20:05.849Z,99983.47
2023-02-19T05:22:32.219Z,99993.81
2023-02-19T05:24:58.572Z,99999.00
2023-02-19T05:27:24.900Z,99988.06
2023-02-19T05:29:51.278Z,99990.19
2023-02-19T05:32:17.630Z,99991.63
2023-02-19T05:34:43.968Z,99982.75
2023-02-19T05:37:10.346Z,99997.34
2023-02-19T05:39:36.671Z,99994.41
2023-02-19T05:42:02.991Z,99995.22
2023-02-19T05:44:29.298Z,99990.50
2023-02-19T05:46:55.622Z,99987.91
2023-02-19T05:49:21.940Z,99983.66
2023-02-19T05:51:48.254Z,99988.69
2023-02-19T05:54:14.574Z,99980.88
2023-02-19T05:56:40.884Z,99990.03
2023-02-19T05:59:07.937Z,99995.25
2023-02-19T06:01:34.245Z,99994.78
2023-02-19T06:04:00.610Z,99999.84
2023-02-19T06:06:27.008Z,100005.22
2023-02-19T06:08:53.328Z,100018.09
2023-02-19T06:11:19.635Z,100020.56
2023-02-19T06:13:45.972Z,100010.28
2023-02-19T06:16:12.386Z,100005.38
2023-02-19T06:18:40.726Z,100015.66
2023-02-19T06:21:07.028Z,100021.88
2023-02-19T06:23:33.344Z,100026.63
2023-02-19T06:25:59.637Z,100024.31
2023-02-19T06:28:25.953Z,100027.91
2023-02-19T06:30:52.266Z,100035.94
2023-02-19T06:33:18.594Z,100035.09
2023-02-19T06:35:44.925Z,100038.03
2023-02-19T06:38:11.247Z,100041.13
2023-02-19T06:40:37.574Z,100040.31
2023-02-19T06:43:03.930Z,100045.88
2023-02-19T06:45:30.263Z,100040.13
2023-02-19T06:47:56.629Z,100049.94
2023-02-19T06:50:22.958Z,100053.03
2023-02-19T06:52:49.362Z,100048.00
2023-02-19T06:55:15.703Z,100063.50
2023-02-19T06:57:42.033Z,100050.97
2023-02-19T07:00:08.370Z,100060.78
2023-02-19T07:02:34.729Z,100056.81
2023-02-19T07:05:01.016Z,100053.41
2023-02-19T07:07:27.327Z,100057.81
2023-02-19T07:09:53.642Z,100068.44
2023-02-19T07:12:19.967Z,100070.09
2023-02-19T07:14:46.290Z,100084.00
2023-02-19T07:17:12.607Z,100091.00
2023-02-19T07:19:38.945Z,100086.59
2023-02-19T07:22:05.255Z,100091.19
2023-02-19T07:24:31.573Z,100097.56
2023-02-19T07:26:58.051Z,100099.88
2023-02-19T07:29:24.350Z,100106.91
2023-02-19T07:31:50.727Z,100104.59
2023-02-19T07:34:17.117Z,100116.56
2023-02-19T07:36:43.458Z,100115.25
2023-02-19T07:39:11.745Z,100130.66
2023-02-19T07:41:38.082Z,100148.19
2023-02-19T07:44:04.401Z,100159.81
2023-02-19T07:46:30.769Z,100169.09
2023-02-19T07:48:57.162Z,100163.41
2023-02-19T07:51:23.564Z,100173.88
2023-02-19T07:53:50.596Z,100173.16
2023-02-19T07:56:16.947Z,100184.25
2023-02-19T07:58:43.340Z,100195.22
2023-02-19T08:01:10.269Z,100198.62
2023-02-19T08:03:37.030Z,100194.03
2023-02-19T08:06:03.368Z,100197.94
2023-02-19T08:08:29.688Z,100207.56
2023-02-19T08:11:14.785Z,100212.34
2023-02-19T08:13:41.118Z,100219.69
2023-02-19T08:16:18.262Z,100235.69
2023-02-19T08:18:46.564Z,100240.16
2023-02-19T08:21:12.894Z,100241.63
2023-02-19T08:23:39.252Z,100237.31
2023-02-19T08:26:05.626Z,100253.69
2023-02-19T08:28:31.994Z,100261.75
2023-02-19T08:30:58.333Z,100265.94
2023-02-19T08:33:24.681Z,100291.25
2023-02-19T08:35:51.013Z,100308.75
2023-02-19T08:38:17.380Z,100312.09
2023-02-19T08:40:43.872Z,100326.06
2023-02-19T08:43:10.176Z,100339.50
2023-02-19T08:45:36.500Z,100325.88
2023-02-19T08:48:02.818Z,100332.72
2023-02-19T08:50:29.139Z,100344.22
2023-02-19T08:52:55.536Z,100350.81
2023-02-19T08:55:21.860Z,100367.41
2023-02-19T08:57:50.324Z,100372.53
2023-02-19T09:00:16.944Z,100392.50
2023-02-19T09:02:43.279Z,100394.25
2023-02-19T09:05:09.725Z,100410.34
2023-02-19T09:07:36.050Z,100417.63
2023-02-19T09:10:02.377Z,100421.19
2023-02-19T09:12:28.681Z,100433.81
2023-02-19T09:14:55.637Z,100442.47
2023-02-19T09:17:21.957Z,100443.50
2023-02-19T09:19:50.613Z,100457.97
2023-02-19T09:22:17.310Z,100461.41
2023-02-19T09:24:43.779Z,100471.97
2023-02-19T09:27:10.907Z,100477.03
2023-02-19T09:29:37.238Z,100489.13
2023-02-19T09:32:03.750Z,100485.31
2023-02-19T09:34:30.125Z,100508.41
2023-02-19T09:36:56.472Z,100516.78
2023-02-19T09:39:22.793Z,100518.75
2023-02-19T09:41:49.169Z,100526.22
2023-02-19T09:44:15.497Z,100538.13
2023-02-19T09:46:41.823Z,100537.03
2023-02-19T09:49:08.134Z,100566.22
2023-02-19T09:51:34.495Z,100560.62
2023-02-19T09:54:00.853Z,100571.00
2023-02-19T09:56:27.202Z,100576.66
2023-02-19T09:58:53.744Z,100572.13
2023-02-19T10:01:20.094Z,100571.12
2023-02-19T10:03:47.152Z,100572.50
2023-02-19T10:06:13.504Z,100571.97
2023-02-19T10:08:39.834Z,100577.06
2023-02-19T10:11:06.780Z,100582.13
2023-02-19T10:15:25.324Z,100597.44
2023-02-19T10:17:51.673Z,100597.44
2023-02-19T10:20:18.522Z,100604.56
2023-02-19T10:22:44.854Z,100607.69
2023-02-19T10:25:11.172Z,100611.06
2023-02-19T10:27:37.515Z,100618.66
2023-02-19T10:30:03.890Z,100625.25
2023-02-19T10:32:30.788Z,100627.63
2023-02-19T10:34:57.127Z,100635.94
2023-02-19T10:37:23.470Z,100621.56
2023-02-19T10:39:49.945Z,100625.25
2023-02-19T10:42:16.328Z,100640.94
2023-02-19T10:44:42.716Z,100638.06
2023-02-19T10:47:09.042Z,100652.38
2023-02-19T10:49:35.623Z,100650.91
2023-02-19T10:52:02.525Z,100651.28
2023-02-19T10:54:30.262Z,100654.91
2023-02-19T10:56:56.744Z,100659.31
2023-02-19T10:59:23.082Z,100657.66
2023-02-19T11:01:49.416Z,100664.91
2023-02-19T11:04:15.782Z,100668.13
2023-02-19T11:06:42.164Z,100667.31
2023-02-19T11:09:08.510Z,100674.81
2023-02-19T11:11:34.899Z,100674.66
2023-02-19T11:14:01.214Z,100683.47
2023-02-19T11:16:27.596Z,100689.00
2023-02-19T11:18:57.037Z,100692.03
2023-02-19T11:21:23.655Z,100686.03
2023-02-19T11:23:49.997Z,100690.91
2023-02-19T11:26:16.336Z,100704.03
2023-02-19T11:28:42.648Z,100703.47
2023-02-19T11:31:09.186Z,100711.87
2023-02-19T11:33:35.724Z,100706.75
2023-02-19T11:36:02.067Z,100709.16
2023-02-19T11:38:28.450Z,100712.09
2023-02-19T11:40:54.851Z,100725.28
2023-02-19T11:43:21.149Z,100713.44
2023-02-19T11:45:47.466Z,100720.03
2023-02-19T11:48:13.845Z,100724.59
2023-02-19T11:50:42.706Z,100718.37
2023-02-19T11:53:09.007Z,100724.06
2023-02-19T11:55:35.389Z,100733.25
2023-02-19T11:58:01.725Z,100742.94
2023-02-19T12:00:28.149Z,100720.56
2023-02-19T12:02:54.638Z,100728.03
2023-02-19T12:05:22.000Z,100735.16
2023-02-19T12:07:51.586Z,100738.06
2023-02-19T12:10:17.898Z,100739.59
2023-02-19T12:12:44.233Z,100749.69
2023-02-19T12:15:10.567Z,100754.06
2023-02-19T12:17:36.892Z,100763.00
2023-02-19T12:20:03.226Z,100760.75
2023-02-19T12:22:29.628Z,100763.34
2023-02-19T12:24:56.001Z,100771.66
2023-02-19T12:27:22.335Z,100771.69
2023-02-19T12:29:48.679Z,100758.72
2023-02-19T12:32:15.692Z,100770.34
2023-02-19T12:34:42.001Z,100775.28
2023-02-19T12:37:08.317Z,100781.88
2023-02-19T12:39:34.629Z,100764.94
2023-02-19T12:42:00.981Z,100755.59
2023-02-19T12:44:28.681Z,100759.72
2023-02-19T12:46:55.003Z,100757.25
2023-02-19T12:49:21.322Z,100751.59
2023-02-19T12:51:47.672Z,100756.59
2023-02-19T12:54:14.045Z,100753.97
2023-02-19T12:56:40.356Z,100759.81
2023-02-19T12:59:06.761Z,100756.34
2023-02-19T13:01:33.185Z,100749.53
2023-02-19T13:03:59.559Z,100761.56
2023-02-19T13:06:25.912Z,100761.63
2023-02-19T13:09:05.901Z,100770.34
2023-02-19T13:11:34.160Z,100769.44
2023-02-19T13:14:01.446Z,100770.59
2023-02-19T13:16:33.094Z,100775.84
2023-02-19T13:18:59.524Z,100793.88
2023-02-19T13:21:44.749Z,100792.59
2023-02-19T13:24:11.070Z,100790.22
2023-02-19T13:26:37.392Z,100792.31
2023-02-19T13:29:03.694Z,100787.91
2023-02-19T13:31:30.111Z,100781.66
2023-02-19T13:33:56.473Z,100788.84
2023-02-19T13:36:22.802Z,100779.06
2023-02-19T13:38:49.194Z,100774.75
2023-02-19T13:41:15.538Z,100784.31
2023-02-19T13:43:43.008Z,100796.63
2023-02-19T13:46:09.417Z,100800.06
2023-02-19T13:48:35.798Z,100808.25
2023-02-19T13:51:02.109Z,100798.69
2023-02-19T13:53:28.428Z,100817.00
2023-02-19T13:55:54.894Z,100811.06
2023-02-19T13:58:21.227Z,100807.22
2023-02-19T14:00:49.311Z,100810.13
2023-02-19T14:03:15.787Z,100806.19
2023-02-19T14:05:42.107Z,100803.94
2023-02-19T14:08:08.449Z,100815.56
2023-02-19T14:10:34.884Z,100804.34
2023-02-19T14:13:01.203Z,100795.94
2023-02-19T14:15:27.554Z,100804.16
2023-02-19T14:17:55.343Z,100807.72
2023-02-19T14:20:21.757Z,100805.63
2023-02-19T14:22:57.080Z,100818.88
2023-02-19T14:25:23.384Z,100821.47
2023-02-19T14:27:49.729Z,100816.19
2023-02-19T14:30:16.069Z,100821.53
2023-02-19T14:32:45.148Z,100821.13
2023-02-19T14:35:11.584Z,100832.75
2023-02-19T14:37:37.909Z,100822.88
2023-02-19T14:40:04.241Z,100832.69
2023-02-19T14:42:34.104Z,100832.78
2023-02-19T14:45:00.411Z,100841.22
2023-02-19T14:47:26.745Z,100845.84
2023-02-19T14:49:53.057Z,100837.06
2023-02-19T14:52:19.453Z,100853.09
2023-02-19T14:54:45.827Z,100860.87
2023-02-19T14:57:12.227Z,100859.41
2023-02-19T14:59:38.574Z,100850.84
2023-02-19T15:02:04.886Z,100854.44
2023-02-19T15:04:31.580Z,100867.03
2023-02-19T15:06:57.920Z,100870.63
2023-02-19T15:09:24.223Z,100878.63
2023-02-19T15:11:51.242Z,100867.87
2023-02-19T15:14:17.557Z,100882.50
2023-02-19T15:16:43.862Z,100883.19
2023-02-19T15:19:10.190Z,100885.81
2023-02-19T15:21:36.523Z,100886.56
2023-02-19T15:24:02.831Z,100885.72
2023-02-19T15:26:29.205Z,100884.25
2023-02-19T15:28:55.578Z,100886.56
2023-02-19T15:31:22.020Z,100895.56
2023-02-19T15:33:48.405Z,100896.56
2023-02-19T15:36:14.728Z,100893.59
2023-02-19T15:38:41.064Z,100893.59
2023-02-19T15:41:07.613Z,100899.81
2023-02-19T15:43:33.956Z,100900.63
2023-02-19T15:46:00.343Z,100891.56
2023-02-19T15:48:26.662Z,100904.69
2023-02-19T15:50:52.994Z,100908.37
2023-02-19T15:53:19.342Z,100907.53
2023-02-19T15:55:45.667Z,100919.31
2023-02-19T15:58:12.041Z,100917.41
2023-02-19T16:00:38.369Z,100920.84
2023-02-19T16:03:05.641Z,100907.16
2023-02-19T16:05:37.094Z,100915.72
2023-02-19T16:08:03.409Z,100910.50
2023-02-19T16:10:32.600Z,100919.63
2023-02-19T16:12:58.948Z,100914.38
2023-02-19T16:15:25.270Z,100916.88
2023-02-19T16:17:51.854Z,100922.69
2023-02-19T16:20:18.187Z,100920.16
2023-02-19T16:22:44.603Z,100928.97
2023-02-19T16:25:10.933Z,100909.25
2023-02-19T16:27:37.269Z,100913.44
2023-02-19T16:30:03.630Z,100922.66
2023-02-19T16:32:30.141Z,100922.47
2023-02-19T16:34:56.562Z,100925.53
2023-02-19T16:37:22.909Z,100920.94
2023-02-19T16:39:49.231Z,100929.97
2023-02-19T16:42:15.642Z,100948.87
2023-02-19T16:44:42.006Z,100963.28
2023-02-19T16:47:08.346Z,100962.06
2023-02-19T16:49:34.670Z,100972.47
2023-02-19T16:52:02.673Z,100984.09
2023-02-19T16:54:30.488Z,100971.31
2023-02-19T16:56:56.836Z,100987.69
2023-02-19T16:59:23.200Z,100997.09
2023-02-19T17:01:49.504Z,100998.53
2023-02-19T17:04:16.083Z,101004.13
2023-02-19T17:06:42.618Z,101008.31
2023-02-19T17:09:08.955Z,101012.72
2023-02-19T17:11:35.271Z,101024.34
2023-02-19T17:14:02.312Z,101027.41
2023-02-19T17:16:28.672Z,101032.69
2023-02-19T17:18:55.099Z,101041.09
2023-02-19T17:21:21.403Z,101033.84
2023-02-19T17:23:47.751Z,101046.41
2023-02-19T17:26:14.054Z,101030.94
2023-02-19T17:28:41.489Z,101038.59
2023-02-19T17:31:07.899Z,101040.84
2023-02-19T17:33:35.502Z,101039.16
2023-02-19T17:36:01.850Z,101054.72
2023-02-19T17:38:28.689Z,101058.09
2023-02-19T17:40:55.013Z,101063.63
2023-02-19T17:43:21.337Z,101062.78
2023-02-19T17:45:47.704Z,101059.16
2023-02-19T17:48:14.125Z,101071.91
2023-02-19T17:50:40.452Z,101077.16
2023-02-19T17:53:06.777Z,101079.41
2023-02-19T17:55:33.749Z,101083.53
2023-02-19T17:58:00.096Z,101076.63
2023-02-19T18:00:26.514Z,101084.13
2023-02-19T18:02:53.070Z,101087.47
2023-02-19T18:05:19.454Z,101093.53
2023-02-19T18:07:45.763Z,101085.47
2023-02-19T18:10:12.194Z,101074.44
2023-02-19T18:12:38.514Z,101085.19
2023-02-19T18:15:04.856Z,101090.75
2023-02-19T18:17:31.199Z,101092.44
2023-02-19T18:19:57.545Z,101088.84
2023-02-19T18:22:23.888Z,101101.53
2023-02-19T18:24:50.189Z,101104.28
2023-02-19T18:27:18.517Z,101106.00
2023-02-19T18:29:44.860Z,101104.84
2023-02-19T18:32:11.259Z,101109.56
2023-02-19T18:34:37.576Z,101110.16
2023-02-19T18:37:04.080Z,101119.88
2023-02-19T18:39:30.415Z,101120.09
2023-02-19T18:41:58.226Z,101114.59
2023-02-19T18:44:24.544Z,101122.63
2023-02-19T18:46:51.040Z,101114.34
2023-02-19T18:49:17.387Z,101119.34
2023-02-19T18:51:45.116Z,101114.38
2023-02-19T18:54:11.588Z,101125.19
2023-02-19T18:56:37.903Z,101109.19
2023-02-19T18:59:04.434Z,101123.81
2023-02-19T19:01:30.986Z,101119.13
2023-02-19T19:03:57.400Z,101126.03
2023-02-19T19:06:23.806Z,101123.81
2023-02-19T19:08:50.155Z,101122.69
2023-02-19T19:11:16.572Z,101122.69
2023-02-19T19:13:42.933Z,101125.19
2023-02-19T19:16:09.254Z,101127.94
2023-02-19T19:18:38.222Z,101129.88
2023-02-19T19:21:04.535Z,101130.72
2023-02-19T19:23:30.845Z,101139.81
2023-02-19T19:25:57.140Z,101145.09
2023-02-19T19:28:25.441Z,101150.06
2023-02-19T19:30:51.845Z,101143.16
2023-02-19T19:33:18.171Z,101139.56
2023-02-19T19:35:44.476Z,101138.47
2023-02-19T19:38:10.794Z,101137.91
2023-02-19T19:40:37.379Z,101129.91
2023-02-19T19:43:03.710Z,101134.87
2023-02-19T19:45:30.078Z,101137.91
2023-02-19T19:47:56.389Z,101143.72
2023-02-19T19:50:22.761Z,101135.44
2023-02-19T19:52:49.095Z,101142.31
2023-02-19T19:55:16.461Z,101141.50
2023-02-19T19:57:42.955Z,101140.12
2023-02-19T20:00:09.372Z,101138.72
2023-02-19T20:02:36.153Z,101142.06
2023-02-19T20:05:03.136Z,101150.59
2023-02-19T20:07:29.526Z,101146.47
2023-02-19T20:09:59.477Z,101148.66
2023-02-19T20:12:25.842Z,101143.41
2023-02-19T20:14:52.157Z,101145.06
2023-02-19T20:17:18.474Z,101151.13
2023-02-19T20:19:44.809Z,101146.72
2023-02-19T20:22:12.269Z,101146.09
2023-02-19T20:24:38.595Z,101152.75
2023-02-19T20:27:04.897Z,101150.88
2023-02-19T20:29:31.301Z,101153.84
2023-02-19T20:32:00.039Z,101154.66
2023-02-19T20:34:26.539Z,101155.19
2023-02-19T20:36:52.925Z,101152.44
2023-02-19T20:39:19.360Z,101147.19
2023-02-19T20:41:45.700Z,101144.16
2023-02-19T20:44:12.019Z,101135.56
2023-02-19T20:46:38.344Z,101146.06
2023-02-19T20:49:04.679Z,101142.47
2023-02-19T20:51:30.973Z,101143.00
2023-02-19T20:53:57.290Z,101152.66
2023-02-19T20:56:25.396Z,101154.50
2023-02-19T20:58:51.696Z,101156.78
2023-02-19T21:01:18.236Z,101155.66
2023-02-19T21:03:44.572Z,101158.97
2023-02-19T21:06:11.256Z,101168.06
2023-02-19T21:08:37.808Z,101175.22
2023-02-19T21:11:04.156Z,101183.44
2023-02-19T21:13:30.483Z,101196.91
2023-02-19T21:15:56.836Z,101192.22
2023-02-19T21:18:23.165Z,101192.53
2023-02-19T21:20:49.472Z,101191.28
2023-02-19T21:23:15.810Z,101191.28
2023-02-19T21:25:42.153Z,101200.72
2023-02-19T21:28:09.773Z,101214.06
2023-02-19T21:30:36.148Z,101208.00
2023-02-19T21:33:02.634Z,101208.03
2023-02-19T21:35:29.368Z,101201.16
2023-02-19T21:37:55.698Z,101218.22
2023-02-19T21:40:23.540Z,101222.97
2023-02-19T21:42:49.862Z,101217.22
2023-02-19T22:02:11.596Z,101217.47
2023-02-19T22:04:37.911Z,101220.19
2023-02-19T22:07:04.235Z,101213.09
2023-02-19T22:09:30.579Z,101218.50
2023-02-19T22:11:56.894Z,101211.91
2023-02-19T22:14:23.246Z,101204.72
2023-02-19T22:16:49.684Z,101204.44
2023-02-19T22:19:16.039Z,101201.72
2023-02-19T22:21:42.362Z,101208.66
2023-02-19T22:24:08.673Z,101195.91
2023-02-19T22:26:35.001Z,101195.34
2023-02-19T22:29:05.891Z,101191.25
2023-02-19T22:31:32.290Z,101173.53
2023-02-19T22:33:58.640Z,101184.81
2023-02-19T22:36:24.994Z,101176.56
2023-02-19T22:38:51.334Z,101170.78
2023-02-19T22:41:17.677Z,101172.72
2023-02-19T22:43:44.000Z,101176.28
2023-02-19T22:46:10.495Z,101181.84
2023-02-19T22:48:36.955Z,101170.88
2023-02-19T22:51:03.262Z,101180.25
2023-02-19T22:53:29.582Z,101181.09
2023-02-19T22:55:55.895Z,101177.78
2023-02-19T22:58:22.302Z,101178.63
2023-02-19T23:00:48.618Z,101183.91
2023-02-19T23:03:14.980Z,101167.34
2023-02-19T23:05:41.306Z,101170.94
2023-02-19T23:08:07.624Z,101168.19
2023-02-19T23:10:34.436Z,101166.31
2023-02-19T23:13:01.037Z,101151.69
2023-02-19T23:15:27.354Z,101148.06
2023-02-19T23:17:53.669Z,101151.69
2023-02-19T23:20:20.026Z,101148.94
2023-02-19T23:22:46.340Z,101147.81
2023-02-19T23:25:12.880Z,101140.06
2023-02-19T23:27:39.203Z,101135.97
2023-02-19T23:30:05.602Z,101129.06
2023-02-19T23:32:31.942Z,101120.22
2023-02-19T23:34:58.248Z,101125.75
2023-02-19T23:37:24.630Z,101125.16
2023-02-19T23:39:50.935Z,101125.16
2023-02-19T23:42:17.284Z,101128.22
2023-02-19T23:44:43.593Z,101128.78
2023-02-19T23:47:09.896Z,101128.22
2023-02-19T23:49:36.200Z,101130.44
2023-02-19T23:52:02.500Z,101131.28
2023-02-19T23:54:28.850Z,101127.09
2023-02-19T23:56:55.192Z,101113.31
2023-02-19T23:59:21.491Z,101105.59
